sensor_id;sensor_type;location;lat;lon;timestamp;P1;durP1;ratioP1;P2;durP2;ratioP2
72895;SDS011;61036;53.224;6.554;2022-08-02T00:02:18;11.87;;;3.87;;
72895;SDS011;61036;53.224;6.554;2022-08-02T00:04:44;7.27;;;3.37;;
72895;SDS011;61036;53.224;6.554;2022-08-02T00:07:10;7.47;;;3.53;;
72895;SDS011;61036;53.224;6.554;2022-08-02T00:09:36;7.17;;;3.23;;
72895;SDS011;61036;53.224;6.554;2022-08-02T00:12:02;10.97;;;3.60;;
72895;SDS011;61036;53.224;6.554;2022-08-02T00:14:28;8.37;;;3.83;;
72895;SDS011;61036;53.224;6.554;2022-08-02T00:16:53;11.73;;;3.87;;
72895;SDS011;61036;53.224;6.554;2022-08-02T00:19:19;9.50;;;3.40;;
72895;SDS011;61036;53.224;6.554;2022-08-02T00:21:45;13.83;;;3.90;;
72895;SDS011;61036;53.224;6.554;2022-08-02T00:24:11;8.90;;;3.37;;
72895;SDS011;61036;53.224;6.554;2022-08-02T00:26:37;11.00;;;3.87;;
72895;SDS011;61036;53.224;6.554;2022-08-02T00:29:03;10.47;;;3.40;;
72895;SDS011;61036;53.224;6.554;2022-08-02T00:31:29;7.60;;;3.47;;
72895;SDS011;61036;53.224;6.554;2022-08-02T00:33:54;7.87;;;3.60;;
72895;SDS011;61036;53.224;6.554;2022-08-02T00:36:20;7.17;;;3.10;;
72895;SDS011;61036;53.224;6.554;2022-08-02T00:38:46;6.87;;;3.10;;
72895;SDS011;61036;53.224;6.554;2022-08-02T00:41:13;10.47;;;3.53;;
72895;SDS011;61036;53.224;6.554;2022-08-02T00:43:42;8.20;;;3.23;;
72895;SDS011;61036;53.224;6.554;2022-08-02T00:46:08;8.87;;;3.47;;
72895;SDS011;61036;53.224;6.554;2022-08-02T00:48:34;8.33;;;3.30;;
72895;SDS011;61036;53.224;6.554;2022-08-02T00:51:05;6.17;;;2.90;;
72895;SDS011;61036;53.224;6.554;2022-08-02T00:53:31;10.63;;;3.70;;
72895;SDS011;61036;53.224;6.554;2022-08-02T00:55:59;10.30;;;3.30;;
72895;SDS011;61036;53.224;6.554;2022-08-02T00:58:26;7.63;;;3.33;;
72895;SDS011;61036;53.224;6.554;2022-08-02T01:00:52;6.20;;;3.10;;
72895;SDS011;61036;53.224;6.554;2022-08-02T01:03:20;10.20;;;2.80;;
72895;SDS011;61036;53.224;6.554;2022-08-02T01:05:46;7.67;;;3.00;;
72895;SDS011;61036;53.224;6.554;2022-08-02T01:08:12;7.10;;;3.23;;
72895;SDS011;61036;53.224;6.554;2022-08-02T01:10:41;7.03;;;2.60;;
72895;SDS011;61036;53.224;6.554;2022-08-02T01:13:08;7.10;;;2.83;;
72895;SDS011;61036;53.224;6.554;2022-08-02T01:15:34;8.10;;;3.33;;
72895;SDS011;61036;53.224;6.554;2022-08-02T01:18:08;10.03;;;3.47;;
72895;SDS011;61036;53.224;6.554;2022-08-02T01:28:51;8.70;;;3.00;;
72895;SDS011;61036;53.224;6.554;2022-08-02T01:31:28;6.50;;;3.00;;
72895;SDS011;61036;53.224;6.554;2022-08-02T01:34:12;6.90;;;2.93;;
72895;SDS011;61036;53.224;6.554;2022-08-02T01:36:56;10.33;;;2.93;;
72895;SDS011;61036;53.224;6.554;2022-08-02T01:39:27;7.83;;;2.83;;
72895;SDS011;61036;53.224;6.554;2022-08-02T01:41:58;6.73;;;3.20;;
72895;SDS011;61036;53.224;6.554;2022-08-02T01:44:27;11.90;;;2.93;;
72895;SDS011;61036;53.224;6.554;2022-08-02T01:46:58;6.43;;;2.83;;
72895;SDS011;61036;53.224;6.554;2022-08-02T01:49:26;7.33;;;2.80;;
72895;SDS011;61036;53.224;6.554;2022-08-02T01:51:57;7.97;;;3.07;;
72895;SDS011;61036;53.224;6.554;2022-08-02T01:54:44;10.30;;;3.50;;
72895;SDS011;61036;53.224;6.554;2022-08-02T01:57:14;9.33;;;3.23;;
72895;SDS011;61036;53.224;6.554;2022-08-02T01:59:41;8.33;;;3.00;;
72895;SDS011;61036;53.224;6.554;2022-08-02T02:02:13;9.10;;;3.10;;
72895;SDS011;61036;53.224;6.554;2022-08-02T02:04:40;9.40;;;3.07;;
72895;SDS011;61036;53.224;6.554;2022-08-02T02:07:08;7.70;;;3.10;;
72895;SDS011;61036;53.224;6.554;2022-08-02T02:09:37;7.80;;;3.13;;
72895;SDS011;61036;53.224;6.554;2022-08-02T02:12:03;8.23;;;2.93;;
72895;SDS011;61036;53.224;6.554;2022-08-02T02:14:31;9.00;;;2.60;;
72895;SDS011;61036;53.224;6.554;2022-08-02T02:16:58;10.00;;;3.60;;
72895;SDS011;61036;53.224;6.554;2022-08-02T02:19:25;7.63;;;3.30;;
72895;SDS011;61036;53.224;6.554;2022-08-02T02:21:56;8.50;;;3.47;;
72895;SDS011;61036;53.224;6.554;2022-08-02T02:24:22;9.73;;;3.33;;
72895;SDS011;61036;53.224;6.554;2022-08-02T02:26:48;8.33;;;3.63;;
72895;SDS011;61036;53.224;6.554;2022-08-02T02:29:17;10.20;;;4.23;;
72895;SDS011;61036;53.224;6.554;2022-08-02T02:31:44;8.73;;;3.40;;
72895;SDS011;61036;53.224;6.554;2022-08-02T02:34:13;10.67;;;3.37;;
72895;SDS011;61036;53.224;6.554;2022-08-02T02:36:41;9.07;;;3.40;;
72895;SDS011;61036;53.224;6.554;2022-08-02T02:39:12;7.90;;;3.30;;
72895;SDS011;61036;53.224;6.554;2022-08-02T02:41:39;9.10;;;3.37;;
72895;SDS011;61036;53.224;6.554;2022-08-02T02:44:08;9.93;;;3.87;;
72895;SDS011;61036;53.224;6.554;2022-08-02T02:46:37;8.17;;;3.07;;
72895;SDS011;61036;53.224;6.554;2022-08-02T02:49:04;9.73;;;3.20;;
72895;SDS011;61036;53.224;6.554;2022-08-02T02:51:32;8.97;;;3.70;;
72895;SDS011;61036;53.224;6.554;2022-08-02T02:53:59;11.93;;;3.73;;
72895;SDS011;61036;53.224;6.554;2022-08-02T02:56:26;9.30;;;3.67;;
72895;SDS011;61036;53.224;6.554;2022-08-02T02:58:53;6.13;;;2.63;;
72895;SDS011;61036;53.224;6.554;2022-08-02T03:01:19;9.70;;;3.50;;
72895;SDS011;61036;53.224;6.554;2022-08-02T03:03:56;9.90;;;3.80;;
72895;SDS011;61036;53.224;6.554;2022-08-02T03:06:25;8.63;;;3.37;;
72895;SDS011;61036;53.224;6.554;2022-08-02T03:08:50;8.57;;;3.17;;
72895;SDS011;61036;53.224;6.554;2022-08-02T03:11:16;7.70;;;3.23;;
72895;SDS011;61036;53.224;6.554;2022-08-02T03:13:42;9.33;;;3.20;;
72895;SDS011;61036;53.224;6.554;2022-08-02T03:16:11;8.63;;;3.40;;
72895;SDS011;61036;53.224;6.554;2022-08-02T03:18:39;9.97;;;3.60;;
72895;SDS011;61036;53.224;6.554;2022-08-02T03:21:10;8.23;;;3.37;;
72895;SDS011;61036;53.224;6.554;2022-08-02T03:23:38;7.30;;;3.10;;
72895;SDS011;61036;53.224;6.554;2022-08-02T03:26:08;6.57;;;2.97;;
72895;SDS011;61036;53.224;6.554;2022-08-02T03:28:34;10.63;;;3.23;;
72895;SDS011;61036;53.224;6.554;2022-08-02T03:31:00;7.90;;;3.13;;
72895;SDS011;61036;53.224;6.554;2022-08-02T03:33:27;9.17;;;2.93;;
72895;SDS011;61036;53.224;6.554;2022-08-02T03:35:54;12.33;;;3.73;;
72895;SDS011;61036;53.224;6.554;2022-08-02T03:38:30;8.07;;;3.10;;
72895;SDS011;61036;53.224;6.554;2022-08-02T03:40:58;9.40;;;3.50;;
72895;SDS011;61036;53.224;6.554;2022-08-02T03:43:26;13.23;;;3.43;;
72895;SDS011;61036;53.224;6.554;2022-08-02T03:45:55;7.53;;;3.23;;
72895;SDS011;61036;53.224;6.554;2022-08-02T03:48:22;7.00;;;2.93;;
72895;SDS011;61036;53.224;6.554;2022-08-02T03:50:49;7.30;;;3.37;;
72895;SDS011;61036;53.224;6.554;2022-08-02T03:53:15;11.90;;;3.70;;
72895;SDS011;61036;53.224;6.554;2022-08-02T03:55:42;8.67;;;3.53;;
72895;SDS011;61036;53.224;6.554;2022-08-02T03:58:15;8.87;;;3.37;;
72895;SDS011;61036;53.224;6.554;2022-08-02T04:00:42;8.30;;;3.17;;
72895;SDS011;61036;53.224;6.554;2022-08-02T04:03:07;10.47;;;3.90;;
72895;SDS011;61036;53.224;6.554;2022-08-02T04:05:33;8.73;;;3.57;;
72895;SDS011;61036;53.224;6.554;2022-08-02T04:07:59;9.57;;;3.83;;
72895;SDS011;61036;53.224;6.554;2022-08-02T04:10:25;11.40;;;3.97;;
72895;SDS011;61036;53.224;6.554;2022-08-02T04:12:52;8.13;;;3.37;;
72895;SDS011;61036;53.224;6.554;2022-08-02T04:15:22;8.03;;;3.63;;
72895;SDS011;61036;53.224;6.554;2022-08-02T04:17:49;14.27;;;4.00;;
72895;SDS011;61036;53.224;6.554;2022-08-02T04:20:21;9.63;;;4.30;;
72895;SDS011;61036;53.224;6.554;2022-08-02T04:23:03;10.13;;;4.13;;
72895;SDS011;61036;53.224;6.554;2022-08-02T04:25:32;8.60;;;3.80;;
72895;SDS011;61036;53.224;6.554;2022-08-02T04:27:59;14.67;;;4.30;;
72895;SDS011;61036;53.224;6.554;2022-08-02T04:30:26;9.40;;;4.43;;
72895;SDS011;61036;53.224;6.554;2022-08-02T04:32:53;9.60;;;4.27;;
72895;SDS011;61036;53.224;6.554;2022-08-02T04:35:19;9.70;;;3.90;;
72895;SDS011;61036;53.224;6.554;2022-08-02T04:37:45;8.60;;;4.27;;
72895;SDS011;61036;53.224;6.554;2022-08-02T04:40:11;7.87;;;4.17;;
72895;SDS011;61036;53.224;6.554;2022-08-02T04:42:38;10.40;;;4.40;;
72895;SDS011;61036;53.224;6.554;2022-08-02T04:45:05;9.77;;;4.23;;
72895;SDS011;61036;53.224;6.554;2022-08-02T04:47:31;10.80;;;4.80;;
72895;SDS011;61036;53.224;6.554;2022-08-02T04:49:57;14.67;;;4.77;;
72895;SDS011;61036;53.224;6.554;2022-08-02T04:52:23;7.37;;;3.90;;
72895;SDS011;61036;53.224;6.554;2022-08-02T04:54:49;10.47;;;4.33;;
72895;SDS011;61036;53.224;6.554;2022-08-02T04:57:15;10.37;;;4.43;;
72895;SDS011;61036;53.224;6.554;2022-08-02T05:00:00;11.43;;;4.37;;
72895;SDS011;61036;53.224;6.554;2022-08-02T05:02:26;11.53;;;4.10;;
72895;SDS011;61036;53.224;6.554;2022-08-02T05:04:52;11.07;;;4.57;;
72895;SDS011;61036;53.224;6.554;2022-08-02T05:07:18;12.70;;;4.80;;
72895;SDS011;61036;53.224;6.554;2022-08-02T05:09:44;10.67;;;4.40;;
72895;SDS011;61036;53.224;6.554;2022-08-02T05:12:12;13.63;;;4.87;;
72895;SDS011;61036;53.224;6.554;2022-08-02T05:14:38;10.70;;;4.33;;
72895;SDS011;61036;53.224;6.554;2022-08-02T05:17:04;12.77;;;4.70;;
72895;SDS011;61036;53.224;6.554;2022-08-02T05:19:30;9.73;;;4.43;;
72895;SDS011;61036;53.224;6.554;2022-08-02T05:21:55;10.77;;;4.43;;
72895;SDS011;61036;53.224;6.554;2022-08-02T05:24:22;10.80;;;4.30;;
72895;SDS011;61036;53.224;6.554;2022-08-02T05:26:47;9.87;;;4.63;;
72895;SDS011;61036;53.224;6.554;2022-08-02T05:29:14;11.53;;;4.50;;
72895;SDS011;61036;53.224;6.554;2022-08-02T05:31:40;9.03;;;4.17;;
72895;SDS011;61036;53.224;6.554;2022-08-02T05:34:10;8.63;;;3.70;;
72895;SDS011;61036;53.224;6.554;2022-08-02T05:36:36;12.00;;;4.43;;
72895;SDS011;61036;53.224;6.554;2022-08-02T05:39:02;9.87;;;3.60;;
72895;SDS011;61036;53.224;6.554;2022-08-02T05:41:31;9.13;;;3.83;;
72895;SDS011;61036;53.224;6.554;2022-08-02T05:43:57;9.30;;;4.07;;
72895;SDS011;61036;53.224;6.554;2022-08-02T05:46:23;13.07;;;4.03;;
72895;SDS011;61036;53.224;6.554;2022-08-02T05:48:48;10.43;;;3.80;;
72895;SDS011;61036;53.224;6.554;2022-08-02T05:51:19;9.43;;;3.80;;
72895;SDS011;61036;53.224;6.554;2022-08-02T05:56:23;8.07;;;4.13;;
72895;SDS011;61036;53.224;6.554;2022-08-02T06:01:34;8.90;;;3.60;;
72895;SDS011;61036;53.224;6.554;2022-08-02T06:04:29;9.27;;;3.07;;
72895;SDS011;61036;53.224;6.554;2022-08-02T06:07:18;6.73;;;3.17;;
72895;SDS011;61036;53.224;6.554;2022-08-02T06:09:47;10.50;;;3.90;;
72895;SDS011;61036;53.224;6.554;2022-08-02T06:12:14;10.47;;;3.70;;
72895;SDS011;61036;53.224;6.554;2022-08-02T06:14:41;11.37;;;3.60;;
72895;SDS011;61036;53.224;6.554;2022-08-02T06:17:07;9.30;;;3.50;;
72895;SDS011;61036;53.224;6.554;2022-08-02T06:19:33;6.73;;;3.17;;
72895;SDS011;61036;53.224;6.554;2022-08-02T06:22:01;8.67;;;2.97;;
72895;SDS011;61036;53.224;6.554;2022-08-02T06:24:41;10.33;;;3.73;;
72895;SDS011;61036;53.224;6.554;2022-08-02T06:27:12;8.63;;;3.20;;
72895;SDS011;61036;53.224;6.554;2022-08-02T06:29:41;7.53;;;3.10;;
72895;SDS011;61036;53.224;6.554;2022-08-02T06:32:08;9.00;;;3.20;;
72895;SDS011;61036;53.224;6.554;2022-08-02T06:34:35;8.00;;;2.90;;
72895;SDS011;61036;53.224;6.554;2022-08-02T06:40:25;8.27;;;2.97;;
72895;SDS011;61036;53.224;6.554;2022-08-02T06:43:12;11.67;;;3.23;;
72895;SDS011;61036;53.224;6.554;2022-08-02T06:45:45;7.17;;;3.03;;
72895;SDS011;61036;53.224;6.554;2022-08-02T06:48:11;8.47;;;2.80;;
72895;SDS011;61036;53.224;6.554;2022-08-02T06:50:37;8.80;;;2.77;;
72895;SDS011;61036;53.224;6.554;2022-08-02T06:53:04;7.13;;;2.87;;
72895;SDS011;61036;53.224;6.554;2022-08-02T06:55:30;7.80;;;2.63;;
72895;SDS011;61036;53.224;6.554;2022-08-02T06:57:56;9.43;;;2.67;;
72895;SDS011;61036;53.224;6.554;2022-08-02T07:00:23;6.63;;;2.90;;
72895;SDS011;61036;53.224;6.554;2022-08-02T07:02:49;5.20;;;2.30;;
72895;SDS011;61036;53.224;6.554;2022-08-02T07:05:16;7.80;;;2.63;;
72895;SDS011;61036;53.224;6.554;2022-08-02T07:07:41;6.53;;;2.57;;
72895;SDS011;61036;53.224;6.554;2022-08-02T07:10:07;6.73;;;2.60;;
72895;SDS011;61036;53.224;6.554;2022-08-02T07:12:34;6.13;;;2.50;;
72895;SDS011;61036;53.224;6.554;2022-08-02T07:15:01;5.60;;;2.33;;
72895;SDS011;61036;53.224;6.554;2022-08-02T07:17:29;6.40;;;2.40;;
72895;SDS011;61036;53.224;6.554;2022-08-02T07:19:55;7.10;;;2.43;;
72895;SDS011;61036;53.224;6.554;2022-08-02T07:22:22;4.70;;;2.03;;
72895;SDS011;61036;53.224;6.554;2022-08-02T07:24:48;7.17;;;2.27;;
72895;SDS011;61036;53.224;6.554;2022-08-02T07:27:20;5.77;;;1.93;;
72895;SDS011;61036;53.224;6.554;2022-08-02T07:29:47;6.07;;;2.20;;
72895;SDS011;61036;53.224;6.554;2022-08-02T07:32:16;7.17;;;2.30;;
72895;SDS011;61036;53.224;6.554;2022-08-02T07:34:43;7.23;;;2.33;;
72895;SDS011;61036;53.224;6.554;2022-08-02T07:37:09;6.17;;;2.27;;
72895;SDS011;61036;53.224;6.554;2022-08-02T07:39:35;6.93;;;2.20;;
72895;SDS011;61036;53.224;6.554;2022-08-02T07:42:02;5.97;;;1.93;;
72895;SDS011;61036;53.224;6.554;2022-08-02T07:44:28;5.47;;;2.10;;
72895;SDS011;61036;53.224;6.554;2022-08-02T07:46:59;5.63;;;1.60;;
72895;SDS011;61036;53.224;6.554;2022-08-02T07:49:26;4.80;;;1.53;;
72895;SDS011;61036;53.224;6.554;2022-08-02T07:51:53;5.63;;;2.00;;
72895;SDS011;61036;53.224;6.554;2022-08-02T07:54:19;5.23;;;1.67;;
72895;SDS011;61036;53.224;6.554;2022-08-02T07:56:47;4.90;;;1.73;;
72895;SDS011;61036;53.224;6.554;2022-08-02T07:59:13;4.90;;;1.63;;
72895;SDS011;61036;53.224;6.554;2022-08-02T08:01:39;3.80;;;1.73;;
72895;SDS011;61036;53.224;6.554;2022-08-02T08:04:06;4.93;;;1.80;;
72895;SDS011;61036;53.224;6.554;2022-08-02T08:06:31;8.57;;;1.80;;
72895;SDS011;61036;53.224;6.554;2022-08-02T08:08:57;4.07;;;1.60;;
72895;SDS011;61036;53.224;6.554;2022-08-02T08:11:23;4.47;;;1.53;;
72895;SDS011;61036;53.224;6.554;2022-08-02T08:13:48;6.30;;;1.83;;
72895;SDS011;61036;53.224;6.554;2022-08-02T08:16:14;4.23;;;1.43;;
72895;SDS011;61036;53.224;6.554;2022-08-02T08:18:40;4.37;;;1.37;;
72895;SDS011;61036;53.224;6.554;2022-08-02T08:21:08;5.70;;;1.53;;
72895;SDS011;61036;53.224;6.554;2022-08-02T08:23:36;4.37;;;1.40;;
72895;SDS011;61036;53.224;6.554;2022-08-02T08:26:02;4.00;;;1.40;;
72895;SDS011;61036;53.224;6.554;2022-08-02T08:28:29;4.83;;;1.43;;
72895;SDS011;61036;53.224;6.554;2022-08-02T08:30:55;5.50;;;1.83;;
72895;SDS011;61036;53.224;6.554;2022-08-02T08:33:20;2.70;;;1.43;;
72895;SDS011;61036;53.224;6.554;2022-08-02T08:35:49;3.53;;;1.30;;
72895;SDS011;61036;53.224;6.554;2022-08-02T08:38:14;3.53;;;1.53;;
72895;SDS011;61036;53.224;6.554;2022-08-02T08:40:41;4.23;;;1.70;;
72895;SDS011;61036;53.224;6.554;2022-08-02T08:43:06;4.27;;;1.60;;
72895;SDS011;61036;53.224;6.554;2022-08-02T08:45:33;5.03;;;1.33;;
72895;SDS011;61036;53.224;6.554;2022-08-02T08:48:00;3.70;;;1.53;;
72895;SDS011;61036;53.224;6.554;2022-08-02T08:50:32;15.47;;;12.40;;
72895;SDS011;61036;53.224;6.554;2022-08-02T08:55:30;4.77;;;1.40;;
72895;SDS011;61036;53.224;6.554;2022-08-02T08:57:57;4.07;;;1.40;;
72895;SDS011;61036;53.224;6.554;2022-08-02T09:00:24;4.03;;;1.40;;
72895;SDS011;61036;53.224;6.554;2022-08-02T09:02:50;6.60;;;1.50;;
72895;SDS011;61036;53.224;6.554;2022-08-02T09:05:16;5.47;;;1.60;;
72895;SDS011;61036;53.224;6.554;2022-08-02T09:07:45;4.10;;;1.37;;
72895;SDS011;61036;53.224;6.554;2022-08-02T09:13:18;3.43;;;1.50;;
72895;SDS011;61036;53.224;6.554;2022-08-02T09:15:52;2.47;;;1.57;;
72895;SDS011;61036;53.224;6.554;2022-08-02T09:18:32;4.13;;;1.57;;
72895;SDS011;61036;53.224;6.554;2022-08-02T09:21:00;3.90;;;1.40;;
72895;SDS011;61036;53.224;6.554;2022-08-02T09:23:47;2.63;;;1.50;;
72895;SDS011;61036;53.224;6.554;2022-08-02T09:26:14;3.63;;;1.73;;
72895;SDS011;61036;53.224;6.554;2022-08-02T09:28:43;2.73;;;1.60;;
72895;SDS011;61036;53.224;6.554;2022-08-02T09:31:15;4.87;;;1.77;;
72895;SDS011;61036;53.224;6.554;2022-08-02T09:33:43;4.00;;;1.83;;
72895;SDS011;61036;53.224;6.554;2022-08-02T09:36:11;4.13;;;2.37;;
72895;SDS011;61036;53.224;6.554;2022-08-02T09:38:51;4.90;;;2.00;;
72895;SDS011;61036;53.224;6.554;2022-08-02T09:41:22;4.67;;;2.10;;
72895;SDS011;61036;53.224;6.554;2022-08-02T09:43:51;3.63;;;1.83;;
72895;SDS011;61036;53.224;6.554;2022-08-02T09:46:23;4.27;;;2.03;;
72895;SDS011;61036;53.224;6.554;2022-08-02T09:51:24;6.60;;;2.23;;
72895;SDS011;61036;53.224;6.554;2022-08-02T09:53:55;4.23;;;2.20;;
72895;SDS011;61036;53.224;6.554;2022-08-02T09:56:23;4.50;;;2.10;;
72895;SDS011;61036;53.224;6.554;2022-08-02T09:58:50;3.37;;;2.03;;
72895;SDS011;61036;53.224;6.554;2022-08-02T10:01:29;4.43;;;2.13;;
72895;SDS011;61036;53.224;6.554;2022-08-02T10:03:59;4.17;;;2.40;;
72895;SDS011;61036;53.224;6.554;2022-08-02T10:06:30;4.67;;;2.60;;
72895;SDS011;61036;53.224;6.554;2022-08-02T10:08:57;3.03;;;1.97;;
72895;SDS011;61036;53.224;6.554;2022-08-02T10:11:23;4.27;;;2.30;;
72895;SDS011;61036;53.224;6.554;2022-08-02T10:13:52;6.27;;;2.63;;
72895;SDS011;61036;53.224;6.554;2022-08-02T10:16:28;5.43;;;2.57;;
72895;SDS011;61036;53.224;6.554;2022-08-02T10:18:55;4.87;;;3.00;;
72895;SDS011;61036;53.224;6.554;2022-08-02T10:21:27;5.77;;;2.70;;
72895;SDS011;61036;53.224;6.554;2022-08-02T10:24:11;5.97;;;2.73;;
72895;SDS011;61036;53.224;6.554;2022-08-02T10:26:41;4.17;;;2.77;;
72895;SDS011;61036;53.224;6.554;2022-08-02T10:29:09;5.83;;;2.93;;
72895;SDS011;61036;53.224;6.554;2022-08-02T10:31:43;5.37;;;2.50;;
72895;SDS011;61036;53.224;6.554;2022-08-02T10:34:31;6.03;;;3.10;;
72895;SDS011;61036;53.224;6.554;2022-08-02T10:37:02;4.57;;;2.57;;
72895;SDS011;61036;53.224;6.554;2022-08-02T10:39:40;5.23;;;2.50;;
72895;SDS011;61036;53.224;6.554;2022-08-02T10:42:08;7.30;;;3.07;;
72895;SDS011;61036;53.224;6.554;2022-08-02T10:44:34;5.77;;;2.83;;
72895;SDS011;61036;53.224;6.554;2022-08-02T10:49:48;10.30;;;3.60;;
72895;SDS011;61036;53.224;6.554;2022-08-02T10:52:16;6.17;;;2.97;;
72895;SDS011;61036;53.224;6.554;2022-08-02T10:54:54;4.50;;;2.70;;
72895;SDS011;61036;53.224;6.554;2022-08-02T10:57:38;5.57;;;3.03;;
72895;SDS011;61036;53.224;6.554;2022-08-02T11:02:37;6.77;;;3.00;;
72895;SDS011;61036;53.224;6.554;2022-08-02T11:05:07;7.07;;;3.30;;
72895;SDS011;61036;53.224;6.554;2022-08-02T11:07:34;5.53;;;3.33;;
72895;SDS011;61036;53.224;6.554;2022-08-02T11:13:21;6.40;;;3.30;;
72895;SDS011;61036;53.224;6.554;2022-08-02T11:15:52;5.67;;;2.97;;
72895;SDS011;61036;53.224;6.554;2022-08-02T11:21:28;7.00;;;3.30;;
72895;SDS011;61036;53.224;6.554;2022-08-02T11:26:54;8.83;;;3.23;;
72895;SDS011;61036;53.224;6.554;2022-08-02T11:29:21;7.43;;;3.43;;
72895;SDS011;61036;53.224;6.554;2022-08-02T11:31:58;7.57;;;3.40;;
72895;SDS011;61036;53.224;6.554;2022-08-02T11:34:24;7.37;;;3.30;;
72895;SDS011;61036;53.224;6.554;2022-08-02T11:36:50;7.80;;;3.43;;
72895;SDS011;61036;53.224;6.554;2022-08-02T11:39:21;5.43;;;3.20;;
72895;SDS011;61036;53.224;6.554;2022-08-02T11:41:50;4.97;;;3.40;;
72895;SDS011;61036;53.224;6.554;2022-08-02T11:44:21;6.67;;;3.73;;
72895;SDS011;61036;53.224;6.554;2022-08-02T11:46:57;6.03;;;4.07;;
72895;SDS011;61036;53.224;6.554;2022-08-02T11:49:24;6.73;;;4.20;;
72895;SDS011;61036;53.224;6.554;2022-08-02T11:51:51;5.53;;;3.37;;
72895;SDS011;61036;53.224;6.554;2022-08-02T11:54:23;5.37;;;3.20;;
72895;SDS011;61036;53.224;6.554;2022-08-02T11:56:52;6.83;;;3.33;;
72895;SDS011;61036;53.224;6.554;2022-08-02T11:59:18;6.47;;;3.10;;
72895;SDS011;61036;53.224;6.554;2022-08-02T12:01:44;7.00;;;3.80;;
72895;SDS011;61036;53.224;6.554;2022-08-02T12:04:09;5.23;;;3.20;;
72895;SDS011;61036;53.224;6.554;2022-08-02T12:06:37;7.13;;;4.03;;
72895;SDS011;61036;53.224;6.554;2022-08-02T12:09:07;5.73;;;3.60;;
72895;SDS011;61036;53.224;6.554;2022-08-02T12:11:33;6.70;;;4.60;;
72895;SDS011;61036;53.224;6.554;2022-08-02T12:14:03;7.57;;;3.53;;
72895;SDS011;61036;53.224;6.554;2022-08-02T12:16:36;6.00;;;3.57;;
72895;SDS011;61036;53.224;6.554;2022-08-02T12:19:22;8.00;;;4.30;;
72895;SDS011;61036;53.224;6.554;2022-08-02T12:22:07;5.80;;;4.00;;
72895;SDS011;61036;53.224;6.554;2022-08-02T12:24:48;5.43;;;3.60;;
72895;SDS011;61036;53.224;6.554;2022-08-02T12:27:30;7.70;;;4.23;;
72895;SDS011;61036;53.224;6.554;2022-08-02T12:30:03;9.10;;;4.90;;
72895;SDS011;61036;53.224;6.554;2022-08-02T12:32:36;7.57;;;5.40;;
72895;SDS011;61036;53.224;6.554;2022-08-02T12:35:04;7.80;;;5.27;;
72895;SDS011;61036;53.224;6.554;2022-08-02T12:37:34;7.07;;;5.53;;
72895;SDS011;61036;53.224;6.554;2022-08-02T12:43:06;10.07;;;6.33;;
72895;SDS011;61036;53.224;6.554;2022-08-02T12:45:45;7.60;;;6.07;;
72895;SDS011;61036;53.224;6.554;2022-08-02T12:48:31;9.33;;;5.77;;
72895;SDS011;61036;53.224;6.554;2022-08-02T12:51:16;6.80;;;4.90;;
72895;SDS011;61036;53.224;6.554;2022-08-02T12:53:46;6.73;;;4.70;;
72895;SDS011;61036;53.224;6.554;2022-08-02T12:56:25;6.03;;;4.07;;
72895;SDS011;61036;53.224;6.554;2022-08-02T12:58:51;7.50;;;4.50;;
72895;SDS011;61036;53.224;6.554;2022-08-02T13:01:20;7.23;;;4.83;;
72895;SDS011;61036;53.224;6.554;2022-08-02T13:03:48;7.03;;;4.33;;
72895;SDS011;61036;53.224;6.554;2022-08-02T13:06:14;8.57;;;4.77;;
72895;SDS011;61036;53.224;6.554;2022-08-02T13:08:39;9.20;;;5.10;;
72895;SDS011;61036;53.224;6.554;2022-08-02T13:11:05;8.47;;;5.20;;
72895;SDS011;61036;53.224;6.554;2022-08-02T13:13:31;7.33;;;5.00;;
72895;SDS011;61036;53.224;6.554;2022-08-02T13:15:57;8.73;;;5.00;;
72895;SDS011;61036;53.224;6.554;2022-08-02T13:18:23;9.57;;;6.00;;
72895;SDS011;61036;53.224;6.554;2022-08-02T13:20:48;9.27;;;5.80;;
72895;SDS011;61036;53.224;6.554;2022-08-02T13:23:14;8.17;;;5.63;;
72895;SDS011;61036;53.224;6.554;2022-08-02T13:25:41;10.57;;;5.70;;
72895;SDS011;61036;53.224;6.554;2022-08-02T13:28:09;7.83;;;6.10;;
72895;SDS011;61036;53.224;6.554;2022-08-02T13:30:37;7.57;;;5.30;;
72895;SDS011;61036;53.224;6.554;2022-08-02T13:33:03;5.87;;;4.50;;
72895;SDS011;61036;53.224;6.554;2022-08-02T13:35:28;10.00;;;4.17;;
72895;SDS011;61036;53.224;6.554;2022-08-02T13:37:54;7.13;;;4.20;;
72895;SDS011;61036;53.224;6.554;2022-08-02T13:40:20;6.03;;;3.90;;
72895;SDS011;61036;53.224;6.554;2022-08-02T13:42:47;6.57;;;4.37;;
72895;SDS011;61036;53.224;6.554;2022-08-02T13:45:12;7.30;;;3.87;;
72895;SDS011;61036;53.224;6.554;2022-08-02T13:47:38;6.87;;;4.90;;
72895;SDS011;61036;53.224;6.554;2022-08-02T13:50:05;5.67;;;4.03;;
72895;SDS011;61036;53.224;6.554;2022-08-02T13:52:31;10.17;;;5.30;;
72895;SDS011;61036;53.224;6.554;2022-08-02T13:54:56;7.53;;;5.20;;
72895;SDS011;61036;53.224;6.554;2022-08-02T13:57:22;7.80;;;5.27;;
72895;SDS011;61036;53.224;6.554;2022-08-02T13:59:48;8.87;;;6.20;;
72895;SDS011;61036;53.224;6.554;2022-08-02T14:02:14;8.73;;;6.53;;
72895;SDS011;61036;53.224;6.554;2022-08-02T14:04:40;11.20;;;7.47;;
72895;SDS011;61036;53.224;6.554;2022-08-02T14:07:06;8.67;;;5.90;;
72895;SDS011;61036;53.224;6.554;2022-08-02T14:09:31;10.03;;;6.67;;
72895;SDS011;61036;53.224;6.554;2022-08-02T14:11:58;9.30;;;6.33;;
72895;SDS011;61036;53.224;6.554;2022-08-02T14:14:24;9.37;;;7.03;;
72895;SDS011;61036;53.224;6.554;2022-08-02T14:16:49;8.33;;;6.83;;
72895;SDS011;61036;53.224;6.554;2022-08-02T14:19:16;9.80;;;6.43;;
72895;SDS011;61036;53.224;6.554;2022-08-02T14:21:41;6.77;;;5.23;;
72895;SDS011;61036;53.224;6.554;2022-08-02T14:24:07;8.50;;;6.23;;
72895;SDS011;61036;53.224;6.554;2022-08-02T14:26:33;11.50;;;8.30;;
72895;SDS011;61036;53.224;6.554;2022-08-02T14:28:59;10.53;;;7.33;;
72895;SDS011;61036;53.224;6.554;2022-08-02T14:31:24;9.23;;;7.17;;
72895;SDS011;61036;53.224;6.554;2022-08-02T14:33:50;10.60;;;7.20;;
72895;SDS011;61036;53.224;6.554;2022-08-02T14:36:15;11.77;;;6.17;;
72895;SDS011;61036;53.224;6.554;2022-08-02T14:38:41;8.73;;;5.80;;
72895;SDS011;61036;53.224;6.554;2022-08-02T14:41:07;13.03;;;7.37;;
72895;SDS011;61036;53.224;6.554;2022-08-02T14:43:35;8.20;;;6.43;;
72895;SDS011;61036;53.224;6.554;2022-08-02T14:46:19;10.97;;;6.87;;
72895;SDS011;61036;53.224;6.554;2022-08-02T14:48:45;8.93;;;6.83;;
72895;SDS011;61036;53.224;6.554;2022-08-02T14:51:10;10.83;;;7.50;;
72895;SDS011;61036;53.224;6.554;2022-08-02T14:53:38;9.23;;;6.93;;
72895;SDS011;61036;53.224;6.554;2022-08-02T14:56:04;9.63;;;7.10;;
72895;SDS011;61036;53.224;6.554;2022-08-02T14:58:29;12.27;;;9.20;;
72895;SDS011;61036;53.224;6.554;2022-08-02T15:00:55;10.80;;;8.70;;
72895;SDS011;61036;53.224;6.554;2022-08-02T15:03:20;10.20;;;7.30;;
72895;SDS011;61036;53.224;6.554;2022-08-02T15:05:46;10.53;;;7.97;;
72895;SDS011;61036;53.224;6.554;2022-08-02T15:08:12;13.00;;;8.60;;
72895;SDS011;61036;53.224;6.554;2022-08-02T15:10:38;9.60;;;7.73;;
72895;SDS011;61036;53.224;6.554;2022-08-02T15:13:04;10.30;;;8.67;;
72895;SDS011;61036;53.224;6.554;2022-08-02T15:15:30;10.67;;;7.73;;
72895;SDS011;61036;53.224;6.554;2022-08-02T15:17:56;11.37;;;7.43;;
72895;SDS011;61036;53.224;6.554;2022-08-02T15:20:24;8.47;;;7.00;;
72895;SDS011;61036;53.224;6.554;2022-08-02T15:22:50;10.30;;;7.20;;
72895;SDS011;61036;53.224;6.554;2022-08-02T15:25:15;9.37;;;6.77;;
72895;SDS011;61036;53.224;6.554;2022-08-02T15:27:45;7.77;;;5.83;;
72895;SDS011;61036;53.224;6.554;2022-08-02T15:30:10;13.93;;;6.10;;
72895;SDS011;61036;53.224;6.554;2022-08-02T15:32:36;8.87;;;6.23;;
72895;SDS011;61036;53.224;6.554;2022-08-02T15:35:02;8.33;;;5.80;;
72895;SDS011;61036;53.224;6.554;2022-08-02T15:37:28;8.03;;;6.20;;